sensor_id;sensor_type;location;lat;lon;timestamp;P1;durP1;ratioP1;P2;durP2;ratioP2
59998;SDS011;45859;51.378;6.736;2023-04-09T00:01:31;32.47;;;15.20;;
59998;SDS011;45859;51.378;6.736;2023-04-09T00:03:56;36.33;;;16.07;;
59998;SDS011;45859;51.378;6.736;2023-04-09T00:06:22;33.13;;;16.40;;
59998;SDS011;45859;51.378;6.736;2023-04-09T00:08:47;34.60;;;15.93;;
59998;SDS011;45859;51.378;6.736;2023-04-09T00:11:13;28.13;;;14.53;;
59998;SDS011;45859;51.378;6.736;2023-04-09T00:13:39;29.13;;;14.20;;
59998;SDS011;45859;51.378;6.736;2023-04-09T00:16:04;41.63;;;31.67;;
59998;SDS011;45859;51.378;6.736;2023-04-09T00:18:31;31.50;;;15.60;;
59998;SDS011;45859;51.378;6.736;2023-04-09T00:20:56;24.67;;;12.13;;
59998;SDS011;45859;51.378;6.736;2023-04-09T00:23:22;32.63;;;16.77;;
59998;SDS011;45859;51.378;6.736;2023-04-09T00:25:47;32.47;;;16.20;;
59998;SDS011;45859;51.378;6.736;2023-04-09T00:28:13;29.47;;;14.63;;
59998;SDS011;45859;51.378;6.736;2023-04-09T00:30:39;39.63;;;16.13;;
59998;SDS011;45859;51.378;6.736;2023-04-09T00:33:05;35.07;;;16.60;;
59998;SDS011;45859;51.378;6.736;2023-04-09T00:35:31;35.47;;;16.90;;
59998;SDS011;45859;51.378;6.736;2023-04-09T00:37:56;48.13;;;33.43;;
59998;SDS011;45859;51.378;6.736;2023-04-09T00:40:22;37.87;;;16.73;;
59998;SDS011;45859;51.378;6.736;2023-04-09T00:42:48;32.27;;;14.90;;
59998;SDS011;45859;51.378;6.736;2023-04-09T00:45:13;33.23;;;16.10;;
59998;SDS011;45859;51.378;6.736;2023-04-09T00:47:39;34.33;;;15.43;;
59998;SDS011;45859;51.378;6.736;2023-04-09T00:50:07;36.43;;;16.23;;
59998;SDS011;45859;51.378;6.736;2023-04-09T00:52:33;36.97;;;16.00;;
59998;SDS011;45859;51.378;6.736;2023-04-09T00:54:59;36.23;;;16.80;;
59998;SDS011;45859;51.378;6.736;2023-04-09T00:57:25;34.83;;;15.53;;
59998;SDS011;45859;51.378;6.736;2023-04-09T00:59:52;37.27;;;16.60;;
59998;SDS011;45859;51.378;6.736;2023-04-09T01:02:18;35.93;;;16.53;;
59998;SDS011;45859;51.378;6.736;2023-04-09T01:04:44;35.87;;;16.20;;
59998;SDS011;45859;51.378;6.736;2023-04-09T01:07:19;39.67;;;16.37;;
59998;SDS011;45859;51.378;6.736;2023-04-09T01:13:06;35.17;;;16.57;;
59998;SDS011;45859;51.378;6.736;2023-04-09T01:15:33;30.53;;;16.40;;
59998;SDS011;45859;51.378;6.736;2023-04-09T01:18:30;34.33;;;17.20;;
59998;SDS011;45859;51.378;6.736;2023-04-09T01:21:30;38.80;;;16.37;;
59998;SDS011;45859;51.378;6.736;2023-04-09T01:29:31;48.07;;;19.30;;
59998;SDS011;45859;51.378;6.736;2023-04-09T01:31:59;41.73;;;17.37;;
59998;SDS011;45859;51.378;6.736;2023-04-09T01:34:27;33.37;;;15.43;;
59998;SDS011;45859;51.378;6.736;2023-04-09T01:36:57;36.10;;;16.20;;
59998;SDS011;45859;51.378;6.736;2023-04-09T01:39:25;40.60;;;17.10;;
59998;SDS011;45859;51.378;6.736;2023-04-09T01:41:51;38.43;;;16.93;;
59998;SDS011;45859;51.378;6.736;2023-04-09T01:44:17;40.23;;;16.93;;
59998;SDS011;45859;51.378;6.736;2023-04-09T01:46:47;39.93;;;15.97;;
59998;SDS011;45859;51.378;6.736;2023-04-09T01:49:14;40.47;;;17.20;;
59998;SDS011;45859;51.378;6.736;2023-04-09T01:51:40;37.00;;;16.73;;
59998;SDS011;45859;51.378;6.736;2023-04-09T01:54:06;34.23;;;15.73;;
59998;SDS011;45859;51.378;6.736;2023-04-09T01:56:42;40.93;;;17.77;;
59998;SDS011;45859;51.378;6.736;2023-04-09T01:59:12;40.47;;;17.10;;
59998;SDS011;45859;51.378;6.736;2023-04-09T02:01:45;38.37;;;17.27;;
59998;SDS011;45859;51.378;6.736;2023-04-09T02:04:19;34.20;;;15.73;;
59998;SDS011;45859;51.378;6.736;2023-04-09T02:06:59;38.00;;;16.47;;
59998;SDS011;45859;51.378;6.736;2023-04-09T02:09:42;42.77;;;17.03;;
59998;SDS011;45859;51.378;6.736;2023-04-09T02:12:12;35.97;;;15.63;;
59998;SDS011;45859;51.378;6.736;2023-04-09T02:14:41;35.67;;;15.57;;
59998;SDS011;45859;51.378;6.736;2023-04-09T02:17:11;37.73;;;16.87;;
59998;SDS011;45859;51.378;6.736;2023-04-09T02:19:38;38.97;;;15.83;;
59998;SDS011;45859;51.378;6.736;2023-04-09T02:24:33;38.33;;;17.43;;
59998;SDS011;45859;51.378;6.736;2023-04-09T02:27:00;41.43;;;16.00;;
59998;SDS011;45859;51.378;6.736;2023-04-09T02:29:26;39.17;;;17.57;;
59998;SDS011;45859;51.378;6.736;2023-04-09T02:31:52;36.87;;;16.57;;
59998;SDS011;45859;51.378;6.736;2023-04-09T02:34:18;39.77;;;17.43;;
59998;SDS011;45859;51.378;6.736;2023-04-09T02:36:44;39.23;;;17.13;;
59998;SDS011;45859;51.378;6.736;2023-04-09T02:39:09;33.30;;;16.90;;
59998;SDS011;45859;51.378;6.736;2023-04-09T02:41:35;43.37;;;17.80;;
59998;SDS011;45859;51.378;6.736;2023-04-09T02:44:00;37.07;;;17.03;;
59998;SDS011;45859;51.378;6.736;2023-04-09T02:46:27;34.33;;;16.43;;
59998;SDS011;45859;51.378;6.736;2023-04-09T02:48:52;49.00;;;18.10;;
59998;SDS011;45859;51.378;6.736;2023-04-09T02:51:18;38.17;;;17.83;;
59998;SDS011;45859;51.378;6.736;2023-04-09T02:53:44;35.47;;;15.53;;
59998;SDS011;45859;51.378;6.736;2023-04-09T02:56:10;39.13;;;17.97;;
59998;SDS011;45859;51.378;6.736;2023-04-09T02:58:35;37.77;;;17.27;;
59998;SDS011;45859;51.378;6.736;2023-04-09T03:01:01;39.57;;;16.93;;
59998;SDS011;45859;51.378;6.736;2023-04-09T03:03:27;42.20;;;17.93;;
59998;SDS011;45859;51.378;6.736;2023-04-09T03:05:53;41.87;;;17.70;;
59998;SDS011;45859;51.378;6.736;2023-04-09T03:08:18;47.87;;;20.03;;
59998;SDS011;45859;51.378;6.736;2023-04-09T03:10:44;40.43;;;18.37;;
59998;SDS011;45859;51.378;6.736;2023-04-09T03:13:10;41.50;;;18.30;;
59998;SDS011;45859;51.378;6.736;2023-04-09T03:15:35;44.43;;;19.60;;
59998;SDS011;45859;51.378;6.736;2023-04-09T03:18:01;41.07;;;17.27;;
59998;SDS011;45859;51.378;6.736;2023-04-09T03:20:26;43.30;;;18.17;;
59998;SDS011;45859;51.378;6.736;2023-04-09T03:22:52;44.77;;;18.53;;
59998;SDS011;45859;51.378;6.736;2023-04-09T03:25:17;44.40;;;17.07;;
59998;SDS011;45859;51.378;6.736;2023-04-09T03:27:44;40.97;;;17.43;;
59998;SDS011;45859;51.378;6.736;2023-04-09T03:30:10;39.70;;;17.30;;
59998;SDS011;45859;51.378;6.736;2023-04-09T03:32:36;46.53;;;16.80;;
59998;SDS011;45859;51.378;6.736;2023-04-09T03:35:01;36.67;;;17.47;;
59998;SDS011;45859;51.378;6.736;2023-04-09T03:37:27;41.93;;;18.03;;
59998;SDS011;45859;51.378;6.736;2023-04-09T03:39:53;40.47;;;17.63;;
59998;SDS011;45859;51.378;6.736;2023-04-09T03:42:18;49.47;;;19.47;;
59998;SDS011;45859;51.378;6.736;2023-04-09T03:44:44;45.43;;;18.77;;
59998;SDS011;45859;51.378;6.736;2023-04-09T03:47:10;39.80;;;16.97;;
59998;SDS011;45859;51.378;6.736;2023-04-09T03:49:35;48.77;;;19.00;;
59998;SDS011;45859;51.378;6.736;2023-04-09T03:52:01;37.40;;;16.20;;
59998;SDS011;45859;51.378;6.736;2023-04-09T03:54:30;39.93;;;18.50;;
59998;SDS011;45859;51.378;6.736;2023-04-09T03:56:55;44.70;;;19.63;;
59998;SDS011;45859;51.378;6.736;2023-04-09T03:59:21;43.50;;;18.40;;
59998;SDS011;45859;51.378;6.736;2023-04-09T04:01:47;48.47;;;19.67;;
59998;SDS011;45859;51.378;6.736;2023-04-09T04:04:13;46.93;;;19.03;;
59998;SDS011;45859;51.378;6.736;2023-04-09T04:06:39;48.40;;;19.77;;
59998;SDS011;45859;51.378;6.736;2023-04-09T04:09:05;50.90;;;20.50;;
59998;SDS011;45859;51.378;6.736;2023-04-09T04:11:30;48.13;;;20.27;;
59998;SDS011;45859;51.378;6.736;2023-04-09T04:13:56;43.30;;;19.87;;
59998;SDS011;45859;51.378;6.736;2023-04-09T04:16:21;49.97;;;21.47;;
59998;SDS011;45859;51.378;6.736;2023-04-09T04:18:47;44.20;;;20.37;;
59998;SDS011;45859;51.378;6.736;2023-04-09T04:21:13;42.83;;;20.20;;
59998;SDS011;45859;51.378;6.736;2023-04-09T04:23:40;42.30;;;19.43;;
59998;SDS011;45859;51.378;6.736;2023-04-09T04:26:08;44.70;;;20.07;;
59998;SDS011;45859;51.378;6.736;2023-04-09T04:28:37;47.87;;;20.57;;
59998;SDS011;45859;51.378;6.736;2023-04-09T04:31:10;48.00;;;19.83;;
59998;SDS011;45859;51.378;6.736;2023-04-09T04:33:36;52.87;;;22.33;;
59998;SDS011;45859;51.378;6.736;2023-04-09T04:36:04;48.30;;;21.23;;
59998;SDS011;45859;51.378;6.736;2023-04-09T04:38:30;52.97;;;22.47;;
59998;SDS011;45859;51.378;6.736;2023-04-09T04:40:56;50.40;;;21.57;;
59998;SDS011;45859;51.378;6.736;2023-04-09T04:43:22;54.23;;;22.30;;
59998;SDS011;45859;51.378;6.736;2023-04-09T04:45:48;48.47;;;22.40;;
59998;SDS011;45859;51.378;6.736;2023-04-09T04:48:13;56.37;;;23.37;;
59998;SDS011;45859;51.378;6.736;2023-04-09T04:50:39;49.03;;;20.67;;
59998;SDS011;45859;51.378;6.736;2023-04-09T04:53:05;53.43;;;22.40;;
59998;SDS011;45859;51.378;6.736;2023-04-09T04:55:31;53.97;;;22.97;;
59998;SDS011;45859;51.378;6.736;2023-04-09T04:57:59;61.70;;;23.57;;
59998;SDS011;45859;51.378;6.736;2023-04-09T05:00:24;52.90;;;22.93;;
59998;SDS011;45859;51.378;6.736;2023-04-09T05:02:50;55.03;;;22.70;;
59998;SDS011;45859;51.378;6.736;2023-04-09T05:05:15;54.23;;;22.60;;
59998;SDS011;45859;51.378;6.736;2023-04-09T05:07:41;50.87;;;23.13;;
59998;SDS011;45859;51.378;6.736;2023-04-09T05:10:07;48.80;;;20.57;;
59998;SDS011;45859;51.378;6.736;2023-04-09T05:12:33;52.47;;;23.80;;
59998;SDS011;45859;51.378;6.736;2023-04-09T05:14:58;61.67;;;23.67;;
59998;SDS011;45859;51.378;6.736;2023-04-09T05:17:24;57.20;;;22.17;;
59998;SDS011;45859;51.378;6.736;2023-04-09T05:19:51;48.90;;;21.67;;
59998;SDS011;45859;51.378;6.736;2023-04-09T05:22:17;53.53;;;22.67;;
59998;SDS011;45859;51.378;6.736;2023-04-09T05:24:43;46.27;;;20.17;;
59998;SDS011;45859;51.378;6.736;2023-04-09T05:27:09;47.60;;;19.37;;
59998;SDS011;45859;51.378;6.736;2023-04-09T05:29:35;57.03;;;22.87;;
59998;SDS011;45859;51.378;6.736;2023-04-09T05:32:00;52.97;;;22.83;;
59998;SDS011;45859;51.378;6.736;2023-04-09T05:34:26;49.93;;;21.53;;
59998;SDS011;45859;51.378;6.736;2023-04-09T05:36:52;62.07;;;26.43;;
59998;SDS011;45859;51.378;6.736;2023-04-09T05:39:18;56.97;;;23.77;;
59998;SDS011;45859;51.378;6.736;2023-04-09T05:41:44;57.70;;;22.50;;
59998;SDS011;45859;51.378;6.736;2023-04-09T05:44:10;41.10;;;19.17;;
59998;SDS011;45859;51.378;6.736;2023-04-09T05:46:36;56.03;;;23.83;;
59998;SDS011;45859;51.378;6.736;2023-04-09T05:49:02;51.70;;;23.33;;
59998;SDS011;45859;51.378;6.736;2023-04-09T05:51:28;63.50;;;23.27;;
59998;SDS011;45859;51.378;6.736;2023-04-09T05:53:54;51.43;;;21.97;;
59998;SDS011;45859;51.378;6.736;2023-04-09T05:56:20;58.27;;;25.67;;
59998;SDS011;45859;51.378;6.736;2023-04-09T05:58:48;52.83;;;22.97;;
59998;SDS011;45859;51.378;6.736;2023-04-09T06:01:13;45.17;;;22.00;;
59998;SDS011;45859;51.378;6.736;2023-04-09T06:03:39;51.03;;;23.00;;
59998;SDS011;45859;51.378;6.736;2023-04-09T06:06:05;53.00;;;22.83;;
59998;SDS011;45859;51.378;6.736;2023-04-09T06:08:31;52.43;;;21.80;;
59998;SDS011;45859;51.378;6.736;2023-04-09T06:10:57;48.80;;;37.37;;
59998;SDS011;45859;51.378;6.736;2023-04-09T06:13:22;41.27;;;19.33;;
59998;SDS011;45859;51.378;6.736;2023-04-09T06:15:48;41.27;;;18.97;;
59998;SDS011;45859;51.378;6.736;2023-04-09T06:18:14;33.83;;;17.13;;
59998;SDS011;45859;51.378;6.736;2023-04-09T06:20:39;34.73;;;29.37;;
59998;SDS011;45859;51.378;6.736;2023-04-09T06:23:05;33.63;;;28.40;;
59998;SDS011;45859;51.378;6.736;2023-04-09T06:25:31;31.87;;;27.20;;
59998;SDS011;45859;51.378;6.736;2023-04-09T06:27:57;32.80;;;27.27;;
59998;SDS011;45859;51.378;6.736;2023-04-09T06:30:22;32.97;;;26.90;;
59998;SDS011;45859;51.378;6.736;2023-04-09T06:32:48;30.03;;;24.90;;
59998;SDS011;45859;51.378;6.736;2023-04-09T06:35:14;30.30;;;26.00;;
59998;SDS011;45859;51.378;6.736;2023-04-09T06:37:40;28.42;;;23.98;;
59998;SDS011;45859;51.378;6.736;2023-04-09T06:40:06;28.42;;;23.95;;
59998;SDS011;45859;51.378;6.736;2023-04-09T06:42:32;29.77;;;24.38;;
59998;SDS011;45859;51.378;6.736;2023-04-09T06:44:57;28.63;;;22.88;;
59998;SDS011;45859;51.378;6.736;2023-04-09T06:47:23;26.63;;;23.52;;
59998;SDS011;45859;51.378;6.736;2023-04-09T06:49:49;24.25;;;21.70;;
59998;SDS011;45859;51.378;6.736;2023-04-09T06:52:15;24.23;;;21.63;;
59998;SDS011;45859;51.378;6.736;2023-04-09T06:54:40;24.05;;;20.90;;
59998;SDS011;45859;51.378;6.736;2023-04-09T06:57:06;25.50;;;21.02;;
59998;SDS011;45859;51.378;6.736;2023-04-09T06:59:32;23.52;;;20.52;;
59998;SDS011;45859;51.378;6.736;2023-04-09T07:01:58;23.38;;;20.45;;
59998;SDS011;45859;51.378;6.736;2023-04-09T07:04:24;22.55;;;19.38;;
59998;SDS011;45859;51.378;6.736;2023-04-09T07:06:51;22.90;;;19.88;;
59998;SDS011;45859;51.378;6.736;2023-04-09T07:09:18;22.35;;;20.00;;
59998;SDS011;45859;51.378;6.736;2023-04-09T07:11:44;20.17;;;18.08;;
59998;SDS011;45859;51.378;6.736;2023-04-09T07:14:10;17.15;;;15.35;;
59998;SDS011;45859;51.378;6.736;2023-04-09T07:16:35;17.65;;;15.65;;
59998;SDS011;45859;51.378;6.736;2023-04-09T07:19:01;16.80;;;15.18;;
59998;SDS011;45859;51.378;6.736;2023-04-09T07:21:27;16.58;;;14.77;;
59998;SDS011;45859;51.378;6.736;2023-04-09T07:23:53;17.15;;;15.35;;
59998;SDS011;45859;51.378;6.736;2023-04-09T07:26:18;16.77;;;14.95;;
59998;SDS011;45859;51.378;6.736;2023-04-09T07:28:44;17.00;;;15.30;;
59998;SDS011;45859;51.378;6.736;2023-04-09T07:31:10;17.25;;;15.30;;
59998;SDS011;45859;51.378;6.736;2023-04-09T07:33:35;15.32;;;13.68;;
59998;SDS011;45859;51.378;6.736;2023-04-09T07:36:01;16.67;;;14.88;;
59998;SDS011;45859;51.378;6.736;2023-04-09T07:38:30;15.85;;;14.15;;
59998;SDS011;45859;51.378;6.736;2023-04-09T07:40:56;15.48;;;13.88;;
59998;SDS011;45859;51.378;6.736;2023-04-09T07:43:22;15.18;;;13.57;;
59998;SDS011;45859;51.378;6.736;2023-04-09T07:45:48;15.43;;;13.40;;
59998;SDS011;45859;51.378;6.736;2023-04-09T07:48:15;14.45;;;12.95;;
59998;SDS011;45859;51.378;6.736;2023-04-09T07:50:41;14.43;;;12.90;;
59998;SDS011;45859;51.378;6.736;2023-04-09T07:53:09;15.75;;;13.32;;
59998;SDS011;45859;51.378;6.736;2023-04-09T07:55:34;14.23;;;12.73;;
59998;SDS011;45859;51.378;6.736;2023-04-09T07:58:00;13.02;;;11.70;;
59998;SDS011;45859;51.378;6.736;2023-04-09T08:00:25;14.45;;;13.05;;
59998;SDS011;45859;51.378;6.736;2023-04-09T08:02:51;16.08;;;13.00;;
59998;SDS011;45859;51.378;6.736;2023-04-09T08:05:16;13.93;;;12.45;;
59998;SDS011;45859;51.378;6.736;2023-04-09T08:07:42;13.13;;;11.75;;
59998;SDS011;45859;51.378;6.736;2023-04-09T08:10:08;11.90;;;10.68;;
59998;SDS011;45859;51.378;6.736;2023-04-09T08:12:38;12.48;;;11.23;;
59998;SDS011;45859;51.378;6.736;2023-04-09T08:15:04;10.85;;;9.85;;
59998;SDS011;45859;51.378;6.736;2023-04-09T08:17:30;11.68;;;10.30;;
59998;SDS011;45859;51.378;6.736;2023-04-09T08:19:56;11.35;;;10.25;;
59998;SDS011;45859;51.378;6.736;2023-04-09T08:22:22;10.32;;;9.32;;
59998;SDS011;45859;51.378;6.736;2023-04-09T08:24:50;9.57;;;8.60;;
59998;SDS011;45859;51.378;6.736;2023-04-09T08:27:17;10.03;;;8.90;;
59998;SDS011;45859;51.378;6.736;2023-04-09T08:29:43;10.38;;;9.38;;
59998;SDS011;45859;51.378;6.736;2023-04-09T08:32:09;9.55;;;8.60;;
59998;SDS011;45859;51.378;6.736;2023-04-09T08:34:35;8.65;;;7.75;;
59998;SDS011;45859;51.378;6.736;2023-04-09T08:37:01;8.80;;;7.90;;
59998;SDS011;45859;51.378;6.736;2023-04-09T08:39:27;8.30;;;7.50;;
59998;SDS011;45859;51.378;6.736;2023-04-09T08:41:53;8.40;;;7.50;;
59998;SDS011;45859;51.378;6.736;2023-04-09T08:44:25;7.90;;;7.10;;
59998;SDS011;45859;51.378;6.736;2023-04-09T08:46:51;7.13;;;6.43;;
59998;SDS011;45859;51.378;6.736;2023-04-09T08:49:18;7.25;;;6.55;;
59998;SDS011;45859;51.378;6.736;2023-04-09T08:51:47;7.05;;;6.35;;
59998;SDS011;45859;51.378;6.736;2023-04-09T08:54:16;7.10;;;6.30;;
59998;SDS011;45859;51.378;6.736;2023-04-09T08:56:46;6.85;;;6.15;;
59998;SDS011;45859;51.378;6.736;2023-04-09T08:59:15;6.53;;;5.85;;
59998;SDS011;45859;51.378;6.736;2023-04-09T09:01:44;7.55;;;6.10;;
59998;SDS011;45859;51.378;6.736;2023-04-09T09:04:11;7.63;;;6.88;;
59998;SDS011;45859;51.378;6.736;2023-04-09T09:06:38;7.20;;;6.47;;
59998;SDS011;45859;51.378;6.736;2023-04-09T09:11:34;7.35;;;6.63;;
59998;SDS011;45859;51.378;6.736;2023-04-09T09:14:05;7.15;;;6.45;;
59998;SDS011;45859;51.378;6.736;2023-04-09T09:16:33;7.60;;;6.28;;
59998;SDS011;45859;51.378;6.736;2023-04-09T09:19:00;7.15;;;5.60;;
59998;SDS011;45859;51.378;6.736;2023-04-09T09:21:27;7.88;;;6.13;;
59998;SDS011;45859;51.378;6.736;2023-04-09T09:23:54;6.75;;;5.82;;
59998;SDS011;45859;51.378;6.736;2023-04-09T09:26:22;6.68;;;6.07;;
59998;SDS011;45859;51.378;6.736;2023-04-09T09:28:52;7.30;;;6.45;;
59998;SDS011;45859;51.378;6.736;2023-04-09T09:31:19;6.70;;;6.00;;
59998;SDS011;45859;51.378;6.736;2023-04-09T09:33:46;7.80;;;6.20;;
59998;SDS011;45859;51.378;6.736;2023-04-09T09:36:13;6.80;;;5.75;;
59998;SDS011;45859;51.378;6.736;2023-04-09T09:38:56;7.40;;;6.60;;
59998;SDS011;45859;51.378;6.736;2023-04-09T09:41:23;6.68;;;5.97;;
59998;SDS011;45859;51.378;6.736;2023-04-09T09:43:50;7.45;;;6.20;;
59998;SDS011;45859;51.378;6.736;2023-04-09T09:46:16;7.82;;;5.70;;
59998;SDS011;45859;51.378;6.736;2023-04-09T09:48:42;6.65;;;5.85;;
59998;SDS011;45859;51.378;6.736;2023-04-09T09:51:10;7.28;;;6.25;;
59998;SDS011;45859;51.378;6.736;2023-04-09T09:53:37;6.40;;;5.60;;
59998;SDS011;45859;51.378;6.736;2023-04-09T09:56:05;7.35;;;6.25;;
59998;SDS011;45859;51.378;6.736;2023-04-09T09:58:55;7.57;;;6.05;;
59998;SDS011;45859;51.378;6.736;2023-04-09T10:01:42;6.68;;;5.57;;
59998;SDS011;45859;51.378;6.736;2023-04-09T10:04:12;7.32;;;5.95;;
59998;SDS011;45859;51.378;6.736;2023-04-09T10:06:42;7.90;;;6.35;;
59998;SDS011;45859;51.378;6.736;2023-04-09T10:09:09;7.43;;;5.90;;
59998;SDS011;45859;51.378;6.736;2023-04-09T10:11:36;7.18;;;6.47;;
59998;SDS011;45859;51.378;6.736;2023-04-09T10:14:02;7.07;;;5.95;;
59998;SDS011;45859;51.378;6.736;2023-04-09T10:16:31;7.85;;;6.15;;
59998;SDS011;45859;51.378;6.736;2023-04-09T10:18:57;7.80;;;6.32;;
59998;SDS011;45859;51.378;6.736;2023-04-09T10:23:54;6.80;;;5.60;;
59998;SDS011;45859;51.378;6.736;2023-04-09T10:26:22;7.68;;;5.70;;
59998;SDS011;45859;51.378;6.736;2023-04-09T10:34:34;5.03;;;4.53;;
59998;SDS011;45859;51.378;6.736;2023-04-09T10:37:02;6.28;;;5.38;;
59998;SDS011;45859;51.378;6.736;2023-04-09T10:39:31;5.90;;;4.85;;
59998;SDS011;45859;51.378;6.736;2023-04-09T10:41:58;6.25;;;4.78;;
59998;SDS011;45859;51.378;6.736;2023-04-09T10:44:26;5.75;;;4.90;;
59998;SDS011;45859;51.378;6.736;2023-04-09T10:46:53;4.97;;;4.45;;
59998;SDS011;45859;51.378;6.736;2023-04-09T10:49:22;5.30;;;4.63;;
59998;SDS011;45859;51.378;6.736;2023-04-09T10:59:31;5.45;;;4.80;;
59998;SDS011;45859;51.378;6.736;2023-04-09T11:01:57;5.65;;;5.05;;
59998;SDS011;45859;51.378;6.736;2023-04-09T11:04:22;5.18;;;4.53;;
59998;SDS011;45859;51.378;6.736;2023-04-09T11:06:58;5.85;;;5.05;;
59998;SDS011;45859;51.378;6.736;2023-04-09T11:09:25;5.78;;;4.95;;
59998;SDS011;45859;51.378;6.736;2023-04-09T11:11:54;5.85;;;5.28;;
59998;SDS011;45859;51.378;6.736;2023-04-09T11:14:21;5.63;;;4.90;;
59998;SDS011;45859;51.378;6.736;2023-04-09T11:16:47;5.28;;;4.78;;
59998;SDS011;45859;51.378;6.736;2023-04-09T11:19:13;5.70;;;5.10;;
59998;SDS011;45859;51.378;6.736;2023-04-09T11:21:42;5.30;;;4.80;;
59998;SDS011;45859;51.378;6.736;2023-04-09T11:24:13;6.10;;;5.47;;
59998;SDS011;45859;51.378;6.736;2023-04-09T11:26:42;7.57;;;6.45;;
59998;SDS011;45859;51.378;6.736;2023-04-09T11:29:07;6.63;;;6.03;;
59998;SDS011;45859;51.378;6.736;2023-04-09T11:31:34;7.68;;;5.72;;
59998;SDS011;45859;51.378;6.736;2023-04-09T11:34:00;5.57;;;5.07;;
59998;SDS011;45859;51.378;6.736;2023-04-09T11:36:26;6.72;;;5.90;;
59998;SDS011;45859;51.378;6.736;2023-04-09T11:38:52;7.43;;;6.30;;
59998;SDS011;45859;51.378;6.736;2023-04-09T11:41:31;7.15;;;5.88;;
59998;SDS011;45859;51.378;6.736;2023-04-09T11:43:57;7.22;;;5.45;;
59998;SDS011;45859;51.378;6.736;2023-04-09T11:46:22;6.15;;;5.55;;
59998;SDS011;45859;51.378;6.736;2023-04-09T11:48:50;6.45;;;5.40;;
59998;SDS011;45859;51.378;6.736;2023-04-09T11:51:16;6.25;;;5.57;;
59998;SDS011;45859;51.378;6.736;2023-04-09T11:53:43;6.30;;;5.65;;
59998;SDS011;45859;51.378;6.736;2023-04-09T11:56:08;6.72;;;5.65;;
59998;SDS011;45859;51.378;6.736;2023-04-09T11:58:35;6.35;;;5.50;;
59998;SDS011;45859;51.378;6.736;2023-04-09T12:01:01;5.63;;;5.13;;
59998;SDS011;45859;51.378;6.736;2023-04-09T12:03:28;7.43;;;6.00;;
59998;SDS011;45859;51.378;6.736;2023-04-09T12:05:55;6.10;;;5.50;;
59998;SDS011;45859;51.378;6.736;2023-04-09T12:08:23;6.20;;;5.50;;
59998;SDS011;45859;51.378;6.736;2023-04-09T12:10:49;6.80;;;6.10;;
59998;SDS011;45859;51.378;6.736;2023-04-09T12:13:16;6.38;;;5.70;;
59998;SDS011;45859;51.378;6.736;2023-04-09T12:15:41;6.28;;;5.65;;
59998;SDS011;45859;51.378;6.736;2023-04-09T12:18:11;6.75;;;6.03;;
59998;SDS011;45859;51.378;6.736;2023-04-09T12:20:38;6.40;;;5.78;;
59998;SDS011;45859;51.378;6.736;2023-04-09T12:23:06;7.35;;;6.47;;
59998;SDS011;45859;51.378;6.736;2023-04-09T12:25:33;6.57;;;5.85;;
59998;SDS011;45859;51.378;6.736;2023-04-09T12:28:00;6.72;;;5.93;;
59998;SDS011;45859;51.378;6.736;2023-04-09T12:30:27;5.55;;;5.03;;
59998;SDS011;45859;51.378;6.736;2023-04-09T12:32:53;7.63;;;5.53;;
59998;SDS011;45859;51.378;6.736;2023-04-09T12:35:21;6.78;;;6.18;;
59998;SDS011;45859;51.378;6.736;2023-04-09T12:37:47;7.00;;;6.18;;
59998;SDS011;45859;51.378;6.736;2023-04-09T12:40:13;7.47;;;6.30;;
59998;SDS011;45859;51.378;6.736;2023-04-09T12:42:42;6.80;;;5.63;;
59998;SDS011;45859;51.378;6.736;2023-04-09T12:45:09;6.28;;;5.68;;
59998;SDS011;45859;51.378;6.736;2023-04-09T12:47:37;5.80;;;5.20;;
59998;SDS011;45859;51.378;6.736;2023-04-09T12:50:04;6.10;;;5.50;;
59998;SDS011;45859;51.378;6.736;2023-04-09T12:52:30;7.17;;;5.73;;
59998;SDS011;45859;51.378;6.736;2023-04-09T12:54:56;7.10;;;5.97;;
59998;SDS011;45859;51.378;6.736;2023-04-09T12:57:21;6.28;;;5.68;;
59998;SDS011;45859;51.378;6.736;2023-04-09T12:59:47;6.43;;;5.83;;
59998;SDS011;45859;51.378;6.736;2023-04-09T13:02:12;8.20;;;5.90;;
59998;SDS011;45859;51.378;6.736;2023-04-09T13:04:38;7.17;;;6.47;;
59998;SDS011;45859;51.378;6.736;2023-04-09T13:07:04;7.83;;;6.00;;
59998;SDS011;45859;51.378;6.736;2023-04-09T13:09:29;6.20;;;5.60;;
59998;SDS011;45859;51.378;6.736;2023-04-09T13:11:55;6.33;;;5.73;;
59998;SDS011;45859;51.378;6.736;2023-04-09T13:14:21;7.13;;;6.03;;
59998;SDS011;45859;51.378;6.736;2023-04-09T13:16:46;7.23;;;5.50;;
59998;SDS011;45859;51.378;6.736;2023-04-09T13:19:12;6.87;;;5.83;;
59998;SDS011;45859;51.378;6.736;2023-04-09T13:21:37;6.67;;;5.97;;
59998;SDS011;45859;51.378;6.736;2023-04-09T13:24:03;7.17;;;6.00;;
59998;SDS011;45859;51.378;6.736;2023-04-09T13:26:29;5.90;;;5.30;;
59998;SDS011;45859;51.378;6.736;2023-04-09T13:28:56;6.37;;;5.77;;
59998;SDS011;45859;51.378;6.736;2023-04-09T13:31:22;6.40;;;5.63;;
59998;SDS011;45859;51.378;6.736;2023-04-09T13:33:48;7.67;;;5.93;;
59998;SDS011;45859;51.378;6.736;2023-04-09T13:36:13;6.13;;;5.53;;
59998;SDS011;45859;51.378;6.736;2023-04-09T13:38:39;7.03;;;6.33;;
59998;SDS011;45859;51.378;6.736;2023-04-09T13:41:05;6.60;;;6.00;;
59998;SDS011;45859;51.378;6.736;2023-04-09T13:43:31;6.63;;;5.83;;
59998;SDS011;45859;51.378;6.736;2023-04-09T13:45:57;6.75;;;6.07;;
59998;SDS011;45859;51.378;6.736;2023-04-09T13:48:22;7.23;;;5.93;;
59998;SDS011;45859;51.378;6.736;2023-04-09T13:50:49;7.85;;;6.55;;
59998;SDS011;45859;51.378;6.736;2023-04-09T13:53:14;6.88;;;5.90;;
59998;SDS011;45859;51.378;6.736;2023-04-09T13:55:41;6.22;;;5.47;;
59998;SDS011;45859;51.378;6.736;2023-04-09T13:58:07;6.70;;;6.07;;
59998;SDS011;45859;51.378;6.736;2023-04-09T14:00:34;6.70;;;6.00;;
59998;SDS011;45859;51.378;6.736;2023-04-09T14:03:00;7.85;;;6.45;;
59998;SDS011;45859;51.378;6.736;2023-04-09T14:05:29;6.47;;;5.87;;
59998;SDS011;45859;51.378;6.736;2023-04-09T14:07:56;6.30;;;5.70;;
59998;SDS011;45859;51.378;6.736;2023-04-09T14:10:22;6.07;;;5.30;;
59998;SDS011;45859;51.378;6.736;2023-04-09T14:12:47;6.13;;;5.53;;
59998;SDS011;45859;51.378;6.736;2023-04-09T14:15:13;6.10;;;5.50;;
59998;SDS011;45859;51.378;6.736;2023-04-09T14:17:39;6.90;;;6.20;;
59998;SDS011;45859;51.378;6.736;2023-04-09T14:20:05;6.63;;;5.50;;
59998;SDS011;45859;51.378;6.736;2023-04-09T14:22:31;5.90;;;5.30;;
59998;SDS011;45859;51.378;6.736;2023-04-09T14:24:56;6.20;;;5.60;;
59998;SDS011;45859;51.378;6.736;2023-04-09T14:27:23;6.93;;;5.80;;
59998;SDS011;45859;51.378;6.736;2023-04-09T14:29:49;5.63;;;5.07;;
59998;SDS011;45859;51.378;6.736;2023-04-09T14:32:15;5.23;;;4.73;;
59998;SDS011;45859;51.378;6.736;2023-04-09T14:34:41;6.00;;;5.07;;
59998;SDS011;45859;51.378;6.736;2023-04-09T14:37:07;6.17;;;5.57;;
59998;SDS011;45859;51.378;6.736;2023-04-09T14:39:32;5.77;;;5.00;;
59998;SDS011;45859;51.378;6.736;2023-04-09T14:41:58;5.80;;;4.60;;
59998;SDS011;45859;51.378;6.736;2023-04-09T14:44:24;5.07;;;4.63;;
59998;SDS011;45859;51.378;6.736;2023-04-09T14:46:51;6.03;;;5.43;;
59998;SDS011;45859;51.378;6.736;2023-04-09T14:49:18;6.47;;;5.07;;
59998;SDS011;45859;51.378;6.736;2023-04-09T14:51:44;5.13;;;4.63;;
59998;SDS011;45859;51.378;6.736;2023-04-09T14:54:10;5.50;;;4.95;;
59998;SDS011;45859;51.378;6.736;2023-04-09T14:56:36;5.30;;;4.80;;
59998;SDS011;45859;51.378;6.736;2023-04-09T14:59:01;5.63;;;4.50;;
59998;SDS011;45859;51.378;6.736;2023-04-09T15:01:27;6.03;;;5.30;;